Estación Meteorológica Peña el Pijo (Robertgarden) [ 07/23/19 12:44:42 CEST ]

Fecha Hora Presion(HPa) Temp (°C) Humedad % Rocio (°C) Viento ( m/s) Direccion Lluvia 1Hora(mm) Lluvia 24H(mm) LLuvia Total(mm)
2019-Mar-25 01:01:47 1011.300 6.3 74 2.0         184.40
2019-Mar-25 02:01:43 1010.900 6.1 76 2.2         184.40
2019-Mar-25 03:01:43 1010.600 5.8 78 2.2         184.40
2019-Mar-25 04:10:07 1010.300 6.4 79 3.0         184.40
2019-Mar-25 05:01:40 1010.000 6.1 81 3.1         184.40
2019-Mar-25 06:01:49 1010.000 5.9 81 2.9         184.40
2019-Mar-25 07:01:40 1010.100 5.9 82 3.0         184.40
2019-Mar-25 08:01:43 1010.500 4.9 83 2.2         184.40
2019-Mar-25 09:01:43 1010.400 7.2 79 3.8         184.40
2019-Mar-25 10:01:47 1010.200 13.0 52 3.3         184.40
2019-Mar-25 11:01:47 1009.700 15.9 38 1.5         184.40
2019-Mar-25 12:01:44 1009.400 17.6 31 0.2         184.40
2019-Mar-25 13:01:42 1009.000 17.8 31 0.4         184.40
2019-Mar-25 14:01:35 1008.100 19.3 30 1.3 1.8 WNW     184.40
2019-Mar-25 15:01:53 1007.200 20.3 27 0.5 3.4 NE     184.40
2019-Mar-25 16:01:58 1006.500 19.8 27 0.1         184.40
2019-Mar-25 17:01:46 1006.300 19.1 28 0.1         184.40
2019-Mar-25 18:01:58 1006.400 17.3 30 -0.4         184.40
2019-Mar-25 19:01:38 1006.900 14.5 34 -1.3         184.40
2019-Mar-25 20:01:38 1007.100 11.9 40 -1.3         184.40
2019-Mar-25 21:01:48 1007.400 9.3 49 -0.9         184.40
2019-Mar-25 22:01:46 1007.700 7.7 52 -1.6         184.40
2019-Mar-25 23:01:43 1007.800 6.1 58 -1.5         184.40

Temperatura Máxima:20°    Temperatura Mínima:
Presión Máxima:1011.300 Hpa    Presión Mínima:1006.300 Hpa


Volver